Time;durP1;ratioP1;P1;durP2;ratioP2;P2;SDS_P1;SDS_P2;PMS_P1;PMS_P2;Temp;Humidity;BMP_temperature;BMP_pressure;BME280_temperature;BME280_humidity;BME280_pressure;Samples;Min_cycle;Max_cycle;Signal;HPM_P1;HPM_P2
2022/06/28 00:01:47;;;;;;;0.20;0.20;;;;;;;21.62;58.52;99457.75;6160691;23;20154;-95
2022/06/28 00:04:15;;;;;;;0.20;0.20;;;;;;;21.69;58.60;99459.28;6144356;23;20117;-94
2022/06/28 00:06:46;;;;;;;0.20;0.20;;;;;;;21.61;58.58;99450.63;6200921;23;20025;-94
2022/06/28 00:09:14;;;;;;;0.20;0.20;;;;;;;21.63;58.77;99459.38;6157365;23;20021;-94
2022/06/28 00:11:42;;;;;;;0.20;0.20;;;;;;;21.57;58.59;99455.13;6177159;23;20025;-93
2022/06/28 00:16:58;;;;;;;0.20;0.20;;;;;;;21.42;59.44;99449.91;6185910;23;20011;-95
2022/06/28 00:19:27;;;;;;;0.20;0.20;;;;;;;21.47;60.05;99473.72;6187151;23;20005;-94
2022/06/28 00:21:56;;;;;;;0.20;0.20;;;;;;;21.49;59.72;99474.22;6176620;23;20025;-95
2022/06/28 00:24:24;;;;;;;0.20;0.20;;;;;;;21.41;59.64;99448.31;6199056;23;20028;-93
2022/06/28 00:26:59;;;;;;;0.20;0.20;;;;;;;21.55;59.76;99473.84;6203123;23;20077;-95
2022/06/28 00:29:29;;;;;;;0.10;0.10;;;;;;;21.53;60.08;99481.56;6180973;23;20031;-95
2022/06/28 00:32:00;;;;;;;0.20;0.20;;;;;;;21.48;60.09;99473.44;6095306;23;20033;-96
2022/06/28 00:34:28;;;;;;;0.20;0.20;;;;;;;21.51;59.81;99472.81;6162025;23;20017;-93
2022/06/28 00:36:55;;;;;;;0.20;0.20;;;;;;;21.42;60.14;99458.16;6164275;23;20032;-95
2022/06/28 00:39:23;;;;;;;0.20;0.20;;;;;;;21.43;60.37;99457.88;6186983;23;20068;-93
2022/06/28 00:41:50;;;;;;;0.20;0.20;;;;;;;21.54;60.77;99477.69;6185670;23;20049;-93
2022/06/28 00:44:17;;;;;;;0.20;0.20;;;;;;;21.41;60.72;99459.28;6186065;23;20025;-93
2022/06/28 00:46:50;;;;;;;0.20;0.20;;;;;;;21.42;60.67;99464.47;6158995;23;20029;-94
2022/06/28 00:49:20;;;;;;;0.20;0.20;;;;;;;21.51;60.41;99474.75;6185938;23;20104;-90
2022/06/28 00:51:50;;;;;;;0.20;0.20;;;;;;;21.50;60.52;99473.94;6182688;23;20029;-89
2022/06/28 00:54:17;;;;;;;0.10;0.10;;;;;;;21.61;60.44;99471.78;6186716;23;20032;-92
2022/06/28 00:56:45;;;;;;;0.17;0.17;;;;;;;21.60;60.22;99473.72;6159578;23;20905;-92
2022/06/28 00:59:14;;;;;;;0.20;0.20;;;;;;;21.67;60.32;99480.72;6162045;23;20029;-92
2022/06/28 01:01:43;;;;;;;0.20;0.20;;;;;;;21.67;60.06;99476.03;6193715;23;20078;-94
2022/06/28 01:04:16;;;;;;;0.20;0.20;;;;;;;21.74;60.55;99487.44;6195872;23;20017;-94
2022/06/28 01:06:45;;;;;;;0.20;0.20;;;;;;;21.76;60.31;99485.19;6139216;23;20140;-92
2022/06/28 01:09:13;;;;;;;0.20;0.20;;;;;;;21.78;60.18;99491.22;6134832;23;20352;-96
2022/06/28 01:11:40;;;;;;;0.20;0.20;;;;;;;21.76;60.45;99481.66;6139446;23;20100;-95
2022/06/28 01:14:08;;;;;;;0.20;0.20;;;;;;;21.77;60.34;99486.81;6170376;23;20021;-94
2022/06/28 01:16:57;;;;;;;0.20;0.20;;;;;;;21.80;60.12;99493.63;6169863;23;20500;-94
2022/06/28 01:19:48;;;;;;;0.20;0.20;;;;;;;21.67;60.60;99478.78;6183274;23;20104;-96
2022/06/28 01:22:41;;;;;;;0.20;0.20;;;;;;;21.64;60.53;99485.72;6162682;23;20557;-94
2022/06/28 01:25:13;;;;;;;0.20;0.20;;;;;;;21.64;60.90;99493.16;6115953;23;20203;-95
2022/06/28 01:27:47;;;;;;;0.20;0.20;;;;;;;21.44;61.12;99483.38;6142729;23;20017;-95
2022/06/28 01:30:23;;;;;;;0.20;0.20;;;;;;;21.55;61.49;99497.75;6112106;23;20103;-95
2022/06/28 01:32:57;;;;;;;0.20;0.20;;;;;;;21.43;61.25;99476.28;6139021;23;20522;-95
2022/06/28 01:35:26;;;;;;;0.20;0.20;;;;;;;21.57;61.42;99492.72;6116736;23;20043;-96
2022/06/28 01:37:55;;;;;;;0.20;0.20;;;;;;;21.49;61.34;99475.03;6111362;23;20321;-96
2022/06/28 01:40:32;;;;;;;0.20;0.20;;;;;;;21.59;61.74;99496.81;6163495;23;20333;-94
2022/06/28 01:43:01;;;;;;;0.20;0.20;;;;;;;21.55;61.96;99505.97;6135987;23;20025;-95
2022/06/28 01:45:36;;;;;;;0.20;0.20;;;;;;;21.39;62.29;99480.72;6115548;23;20095;-96
2022/06/28 01:48:04;;;;;;;0.20;0.20;;;;;;;21.44;61.82;99488.88;6134486;23;20028;-95
2022/06/28 01:51:04;;;;;;;0.20;0.20;;;;;;;21.52;62.48;99512.91;6137254;23;20089;-94
2022/06/28 01:53:33;;;;;;;0.20;0.20;;;;;;;21.42;62.36;99499.34;6130772;23;20206;-94
2022/06/28 01:56:22;;;;;;;0.20;0.20;;;;;;;21.40;62.51;99507.09;6157753;23;20053;-93
2022/06/28 01:59:23;;;;;;;0.20;0.20;;;;;;;21.29;63.12;99491.88;6114214;23;20056;-95
2022/06/28 02:01:56;;;;;;;0.20;0.20;;;;;;;21.30;63.26;99501.75;6154863;23;20108;-95
2022/06/28 02:04:29;;;;;;;0.20;0.20;;;;;;;21.33;63.16;99503.91;6134782;23;20022;-96
2022/06/28 02:07:01;;;;;;;0.20;0.20;;;;;;;21.39;62.60;99505.44;6128648;23;20372;-95
2022/06/28 02:09:35;;;;;;;0.20;0.20;;;;;;;21.49;62.66;99510.72;6152715;23;20221;-95
2022/06/28 02:12:03;;;;;;;0.20;0.20;;;;;;;21.56;62.56;99516.63;6103676;23;20402;-94
2022/06/28 02:14:32;;;;;;;0.20;0.20;;;;;;;21.54;62.54;99509.81;6126637;23;20021;-95
2022/06/28 02:17:03;;;;;;;0.20;0.20;;;;;;;21.52;62.74;99509.31;6126956;23;20368;-95
2022/06/28 02:19:34;;;;;;;0.20;0.20;;;;;;;21.51;62.73;99505.75;6103430;23;20028;-94
2022/06/28 02:22:06;;;;;;;0.20;0.20;;;;;;;21.60;62.64;99517.66;6129743;23;20029;-96
2022/06/28 02:24:36;;;;;;;0.20;0.20;;;;;;;21.54;62.58;99498.84;6152194;23;20157;-95
2022/06/28 02:27:03;;;;;;;0.20;0.20;;;;;;;21.72;62.28;99510.84;6101276;23;20028;-94
2022/06/28 02:29:31;;;;;;;0.20;0.20;;;;;;;21.91;61.89;99525.28;6160563;23;20052;-96
2022/06/28 02:31:58;;;;;;;0.20;0.20;;;;;;;21.99;61.90;99521.00;6137572;23;20044;-94
2022/06/28 02:42:52;;;;;;;0.10;0.10;;;;;;;22.19;61.03;99531.56;6178381;23;20436;-96
2022/06/28 02:45:24;;;;;;;0.20;0.20;;;;;;;22.13;60.98;99520.94;6158303;23;20025;-95
2022/06/28 02:47:53;;;;;;;0.20;0.20;;;;;;;22.21;60.63;99523.03;6161482;23;20008;-93
2022/06/28 02:50:20;;;;;;;0.20;0.20;;;;;;;22.17;60.38;99510.97;6163470;23;20048;-94
2022/06/28 02:52:59;;;;;;;0.10;0.10;;;;;;;22.25;60.27;99513.03;6212756;23;20005;-94
2022/06/28 02:55:29;;;;;;;0.20;0.20;;;;;;;22.38;60.02;99525.09;6125098;23;20051;-95
2022/06/28 02:58:06;;;;;;;0.20;0.20;;;;;;;22.38;60.01;99528.66;6150432;23;20025;-96
2022/06/28 03:00:39;;;;;;;0.20;0.20;;;;;;;22.39;59.46;99529.50;6121608;23;20112;-96
2022/06/28 03:03:16;;;;;;;0.20;0.20;;;;;;;22.35;59.23;99520.22;6159898;23;20016;-95
2022/06/28 03:05:44;;;;;;;0.20;0.20;;;;;;;22.56;58.55;99539.81;6139689;23;20021;-96
2022/06/28 03:08:13;;;;;;;0.20;0.20;;;;;;;22.63;58.71;99534.69;6187084;23;20021;-95
2022/06/28 03:11:09;;;;;;;0.20;0.20;;;;;;;22.73;58.71;99534.44;6139895;23;20047;-96
2022/06/28 03:13:37;;;;;;;0.20;0.20;;;;;;;22.53;58.73;99512.94;6163785;23;20009;-95
2022/06/28 03:16:05;;;;;;;0.20;0.20;;;;;;;22.65;58.63;99527.75;6139019;23;20103;-95
2022/06/28 03:18:34;;;;;;;0.20;0.20;;;;;;;22.78;57.98;99528.81;6115869;23;20283;-96
2022/06/28 03:21:13;;;;;;;0.20;0.20;;;;;;;22.80;58.29;99523.00;6142612;23;20005;-96
2022/06/28 03:23:43;;;;;;;0.20;0.20;;;;;;;22.83;57.46;99523.19;6139468;23;20017;-96
2022/06/28 03:26:15;;;;;;;0.20;0.20;;;;;;;22.99;57.30;99531.91;6128293;23;20025;-95
2022/06/28 03:28:47;;;;;;;0.20;0.20;;;;;;;23.24;56.95;99554.38;6157643;23;20001;-96
2022/06/28 03:31:21;;;;;;;0.20;0.20;;;;;;;23.11;56.25;99529.38;6132293;23;20021;-96
2022/06/28 03:33:51;;;;;;;0.10;0.10;;;;;;;23.24;56.35;99540.63;6169275;23;20056;-92
2022/06/28 03:36:21;;;;;;;0.20;0.20;;;;;;;23.43;55.89;99559.69;6119241;23;20232;-94
2022/06/28 03:38:52;;;;;;;0.10;0.10;;;;;;;23.41;56.01;99557.25;6129479;23;20018;-93
2022/06/28 03:41:35;;;;;;;0.10;0.10;;;;;;;23.43;55.46;99560.50;6144328;23;20033;-91
2022/06/28 03:44:08;;;;;;;0.20;0.20;;;;;;;23.50;55.77;99557.31;6134910;23;20069;-91
2022/06/28 03:46:36;;;;;;;0.20;0.20;;;;;;;23.38;55.86;99549.63;6159458;23;20044;-91
2022/06/28 03:49:33;;;;;;;0.20;0.20;;;;;;;23.33;55.26;99549.75;6096801;23;20025;-93
2022/06/28 03:52:12;;;;;;;0.20;0.20;;;;;;;23.48;55.25;99565.06;6128887;23;20036;-92
2022/06/28 03:55:06;;;;;;;0.20;0.20;;;;;;;23.44;54.90;99548.34;6152927;23;20025;-95
2022/06/28 03:57:41;;;;;;;0.20;0.20;;;;;;;23.54;54.85;99570.09;6107228;23;20435;-93
2022/06/28 04:00:12;;;;;;;0.20;0.20;;;;;;;23.55;54.74;99565.44;6131500;23;20488;-90
2022/06/28 04:02:41;;;;;;;0.10;0.10;;;;;;;23.48;54.76;99540.28;6128389;23;20025;-95
2022/06/28 04:05:17;;;;;;;0.20;0.20;;;;;;;23.67;53.96;99556.53;6140450;23;20414;-94
2022/06/28 04:07:45;;;;;;;0.20;0.20;;;;;;;23.70;53.28;99551.22;6108288;23;20032;-96
2022/06/28 04:14:22;;;;;;;0.20;0.20;;;;;;;24.12;52.37;99567.41;6156004;23;20081;-94
2022/06/28 04:16:49;;;;;;;0.20;0.20;;;;;;;24.12;52.01;99559.94;6088855;23;20028;-95
2022/06/28 04:19:28;;;;;;;0.20;0.20;;;;;;;24.06;52.19;99555.72;6134963;23;20022;-95
2022/06/28 04:22:05;;;;;;;0.20;0.20;;;;;;;24.11;52.22;99561.09;6114325;23;20026;-94
2022/06/28 04:24:49;;;;;;;0.20;0.20;;;;;;;24.16;51.74;99574.72;6141330;23;20033;-93
2022/06/28 04:27:26;;;;;;;0.20;0.20;;;;;;;24.01;51.89;99539.34;6085034;23;20022;-94
2022/06/28 04:29:54;;;;;;;0.20;0.20;;;;;;;24.11;51.64;99561.09;6108206;23;20037;-95
2022/06/28 04:33:00;;;;;;;0.20;0.20;;;;;;;24.05;51.63;99576.16;6135006;23;20029;-96
2022/06/28 04:35:33;;;;;;;0.20;0.20;;;;;;;24.04;51.92;99570.97;6074425;23;20127;-91
2022/06/28 04:38:02;;;;;;;0.20;0.20;;;;;;;24.12;51.46;99578.44;6044165;23;20030;-94
2022/06/28 04:41:02;;;;;;;0.20;0.20;;;;;;;24.05;52.28;99567.06;6051928;23;20058;-93
2022/06/28 04:43:46;;;;;;;0.20;0.20;;;;;;;24.10;52.73;99561.41;6041959;23;20042;-93
2022/06/28 04:46:29;;;;;;;0.20;0.20;;;;;;;24.21;52.43;99571.81;6062436;23;20022;-93
2022/06/28 04:49:00;;;;;;;0.10;0.10;;;;;;;24.20;51.85;99559.16;6039367;23;20017;-92
2022/06/28 04:51:38;;;;;;;0.20;0.20;;;;;;;24.19;52.44;99568.56;6061192;23;20007;-91
2022/06/28 04:54:06;;;;;;;0.10;0.10;;;;;;;24.23;52.50;99564.03;6060760;23;20019;-93
2022/06/28 04:56:55;;;;;;;0.20;0.20;;;;;;;24.21;52.42;99558.03;6071712;23;20021;-93
2022/06/28 04:59:31;;;;;;;0.20;0.20;;;;;;;24.28;52.28;99567.75;6083714;23;20082;-92
2022/06/28 05:02:10;;;;;;;0.10;0.10;;;;;;;24.28;52.09;99581.56;6064661;23;20014;-94
2022/06/28 05:04:38;;;;;;;0.20;0.20;;;;;;;24.22;51.42;99559.66;6090885;23;20019;-93
2022/06/28 05:07:14;;;;;;;0.20;0.20;;;;;;;24.41;51.23;99575.91;6058299;23;20034;-90
2022/06/28 05:09:41;;;;;;;0.20;0.20;;;;;;;24.49;51.43;99576.28;6081794;23;20082;-92
2022/06/28 05:12:09;;;;;;;0.20;0.20;;;;;;;24.52;51.27;99570.91;6105156;23;20022;-90
2022/06/28 05:14:38;;;;;;;0.20;0.20;;;;;;;24.54;51.21;99574.16;6082996;23;20034;-95
2022/06/28 05:17:11;;;;;;;0.20;0.20;;;;;;;24.57;50.89;99554.19;6085447;23;20023;-95
2022/06/28 05:19:38;;;;;;;0.20;0.20;;;;;;;24.73;50.49;99562.78;6060881;23;20026;-94
2022/06/28 05:22:08;;;;;;;0.10;0.10;;;;;;;24.56;50.46;99566.38;6084772;23;20045;-95
2022/06/28 05:25:00;;;;;;;0.10;0.10;;;;;;;24.47;51.04;99562.00;6064095;23;20042;-96
2022/06/28 05:27:33;;;;;;;0.20;0.20;;;;;;;24.51;51.23;99583.09;6085411;23;20030;-94
2022/06/28 05:30:02;;;;;;;0.10;0.10;;;;;;;24.44;51.32;99585.47;6079603;23;20050;-94
2022/06/28 05:32:32;;;;;;;0.20;0.20;;;;;;;24.31;51.89;99575.41;6082568;23;20026;-94
2022/06/28 05:35:01;;;;;;;0.20;0.20;;;;;;;24.39;51.27;99575.41;6094884;23;20045;-92
2022/06/28 05:37:29;;;;;;;0.20;0.20;;;;;;;24.47;51.90;99571.06;6099567;23;20090;-96
2022/06/28 05:39:57;;;;;;;0.13;0.13;;;;;;;24.62;51.84;99576.09;6097549;23;20026;-92
2022/06/28 05:42:53;;;;;;;0.20;0.20;;;;;;;24.82;51.82;99573.84;6123460;23;20022;-95
2022/06/28 05:45:20;;;;;;;0.20;0.20;;;;;;;24.90;50.98;99584.06;6080947;23;20026;-95
2022/06/28 05:47:51;;;;;;;0.10;0.10;;;;;;;24.90;50.63;99578.53;6079309;23;20022;-94
2022/06/28 05:50:44;;;;;;;0.20;0.20;;;;;;;25.06;50.60;99585.16;6100641;23;20037;-94
2022/06/28 05:53:20;;;;;;;0.20;0.20;;;;;;;24.98;50.71;99572.19;6087622;23;20059;-94
2022/06/28 05:55:50;;;;;;;0.13;0.13;;;;;;;25.14;49.97;99575.25;6096050;23;20045;-95
2022/06/28 05:58:18;;;;;;;0.20;0.20;;;;;;;24.98;50.30;99588.75;6109183;23;20030;-95
2022/06/28 06:00:49;;;;;;;0.20;0.20;;;;;;;24.94;49.52;99570.41;6073165;23;20021;-94
2022/06/28 06:03:19;;;;;;;0.20;0.20;;;;;;;24.93;48.85;99568.78;6119572;23;20037;-95
2022/06/28 06:05:47;;;;;;;0.20;0.20;;;;;;;24.96;48.38;99573.66;6096287;23;20045;-95
2022/06/28 06:08:33;;;;;;;0.10;0.10;;;;;;;24.94;47.76;99565.72;6071419;23;20032;-94
2022/06/28 06:11:26;;;;;;;0.20;0.20;;;;;;;25.28;47.77;99600.75;6113259;23;20025;-95
2022/06/28 06:13:55;;;;;;;0.20;0.20;;;;;;;25.30;47.89;99575.59;6092036;23;20029;-94
2022/06/28 06:16:25;;;;;;;0.15;0.15;;;;;;;25.35;47.40;99574.59;6118208;23;20018;-94
2022/06/28 06:18:56;;;;;;;0.20;0.20;;;;;;;25.41;46.60;99596.19;6118375;23;20025;-94
2022/06/28 06:21:25;;;;;;;0.20;0.20;;;;;;;25.35;47.00;99600.28;6085058;23;20018;-92
2022/06/28 06:23:53;;;;;;;0.20;0.20;;;;;;;25.27;47.59;99576.25;6089444;23;20034;-91
2022/06/28 06:26:53;;;;;;;0.20;0.20;;;;;;;25.39;47.49;99578.31;6085012;23;20454;-89
2022/06/28 06:29:26;;;;;;;0.20;0.20;;;;;;;25.34;47.32;99576.53;6116356;23;20050;-96
2022/06/28 06:32:09;;;;;;;0.20;0.20;;;;;;;25.35;46.90;99574.59;6085120;23;20026;-93
2022/06/28 06:35:15;;;;;;;0.20;0.20;;;;;;;25.66;46.05;99583.41;6041117;23;20033;-94
2022/06/28 06:37:42;;;;;;;0.20;0.20;;;;;;;25.68;45.15;99594.16;6067812;23;20022;-94
2022/06/28 06:40:19;;;;;;;0.20;0.20;;;;;;;25.37;46.15;99575.91;6044966;23;20022;-93
2022/06/28 06:42:49;;;;;;;0.20;0.20;;;;;;;25.58;45.75;99598.09;6072657;23;20026;-96
2022/06/28 06:45:24;;;;;;;0.20;0.20;;;;;;;25.77;45.13;99600.44;6069880;23;20026;-95
2022/06/28 06:47:59;;;;;;;0.20;0.20;;;;;;;25.88;45.31;99600.94;6067368;23;20101;-93
2022/06/28 06:50:31;;;;;;;0.20;0.20;;;;;;;26.00;44.96;99606.53;6072576;23;20022;-95
2022/06/28 06:53:03;;;;;;;0.20;0.20;;;;;;;26.07;45.14;99608.81;6048889;23;20038;-93
2022/06/28 06:55:30;;;;;;;0.20;0.20;;;;;;;26.24;45.50;99594.06;6045958;23;20101;-95
2022/06/28 06:57:58;;;;;;;0.20;0.20;;;;;;;26.33;44.74;99611.41;6048640;23;20022;-94
2022/06/28 07:00:30;;;;;;;0.20;0.20;;;;;;;26.29;45.03;99599.41;6070025;23;20027;-94
2022/06/28 07:02:57;;;;;;;0.20;0.20;;;;;;;26.22;44.63;99591.63;6045934;23;20102;-93
2022/06/28 07:05:25;;;;;;;0.20;0.20;;;;;;;26.17;44.63;99591.81;6043677;23;20022;-94
2022/06/28 07:07:52;;;;;;;0.10;0.10;;;;;;;26.28;43.85;99586.69;6044131;23;20022;-94
2022/06/28 07:10:30;;;;;;;0.10;0.10;;;;;;;26.13;43.45;99577.03;6071379;23;20476;-93
2022/06/28 07:13:01;;;;;;;0.20;0.20;;;;;;;26.13;44.16;99599.16;6073561;23;20046;-93
2022/06/28 07:15:28;;;;;;;0.20;0.20;;;;;;;26.14;44.13;99595.25;6071218;23;20022;-93
2022/06/28 07:17:58;;;;;;;0.20;0.20;;;;;;;26.15;44.00;99594.09;6072550;23;20026;-93
2022/06/28 07:20:26;;;;;;;0.10;0.10;;;;;;;26.19;43.62;99608.91;6074858;23;20508;-92
2022/06/28 07:22:57;;;;;;;0.10;0.10;;;;;;;26.06;44.18;99591.41;6049803;23;20022;-94
2022/06/28 07:25:24;;;;;;;0.10;0.10;;;;;;;26.21;43.23;99603.84;6073560;23;20022;-95
2022/06/28 07:27:52;;;;;;;0.20;0.20;;;;;;;26.27;42.98;99591.44;6071879;23;20086;-93
2022/06/28 07:30:20;;;;;;;0.20;0.20;;;;;;;26.37;42.58;99607.63;6060411;23;20023;-93
2022/06/28 07:32:47;;;;;;;0.20;0.20;;;;;;;26.28;43.28;99601.38;6071713;23;20026;-95
2022/06/28 07:35:15;;;;;;;0.20;0.20;;;;;;;26.43;43.12;99607.44;6095699;23;20041;-94
2022/06/28 07:37:46;;;;;;;0.20;0.20;;;;;;;26.46;42.83;99607.59;6077627;23;20026;-93
2022/06/28 07:40:19;;;;;;;0.20;0.20;;;;;;;26.54;43.03;99622.56;6101916;23;20044;-93
2022/06/28 07:43:05;;;;;;;0.20;0.20;;;;;;;26.58;41.96;99626.25;6128775;23;20105;-94
2022/06/28 07:45:44;;;;;;;0.20;0.20;;;;;;;26.46;41.57;99606.75;6123489;23;20029;-94
2022/06/28 07:48:18;;;;;;;0.20;0.20;;;;;;;26.71;41.02;99633.50;6078369;23;20056;-93
2022/06/28 07:53:36;;;;;;;0.20;0.20;;;;;;;26.53;40.56;99631.97;6077062;23;20030;-93
2022/06/28 07:56:16;;;;;;;0.20;0.20;;;;;;;26.48;40.55;99616.34;6100483;23;20101;-93
2022/06/28 07:58:43;;;;;;;0.20;0.20;;;;;;;26.45;40.38;99641.94;6101408;23;20037;-91
2022/06/28 08:01:18;;;;;;;0.20;0.20;;;;;;;26.41;40.19;99627.16;6079240;23;20018;-93
2022/06/28 08:03:46;;;;;;;0.20;0.20;;;;;;;26.60;40.26;99626.72;6081411;23;20022;-94
2022/06/28 08:06:14;;;;;;;0.20;0.20;;;;;;;26.78;39.31;99633.75;6077541;23;20045;-93
2022/06/28 08:08:53;;;;;;;0.20;0.20;;;;;;;26.76;39.13;99618.63;6100599;23;20040;-93
2022/06/28 08:11:33;;;;;;;0.20;0.20;;;;;;;26.98;38.74;99628.56;6080590;23;20461;-94
2022/06/28 08:14:04;;;;;;;0.20;0.20;;;;;;;26.97;39.25;99630.50;6101634;23;20052;-94
2022/06/28 08:16:32;;;;;;;0.20;0.20;;;;;;;27.05;38.86;99625.25;6103914;23;20022;-95
2022/06/28 08:19:11;;;;;;;0.20;0.20;;;;;;;27.17;38.35;99634.41;6081780;23;20090;-94
2022/06/28 08:21:42;;;;;;;0.20;0.20;;;;;;;27.13;38.47;99627.13;6082841;23;20018;-94
2022/06/28 08:24:09;;;;;;;0.20;0.20;;;;;;;27.42;38.29;99654.75;6082713;23;20022;-92
2022/06/28 08:26:42;;;;;;;0.20;0.20;;;;;;;27.49;36.85;99654.16;6087833;23;20052;-94
2022/06/28 08:29:12;;;;;;;0.20;0.20;;;;;;;27.50;36.89;99657.75;6071121;23;20036;-92
2022/06/28 08:31:41;;;;;;;0.20;0.20;;;;;;;27.50;36.48;99635.56;6117571;23;20081;-94
2022/06/28 08:34:11;;;;;;;0.20;0.20;;;;;;;27.79;36.96;99656.78;6074771;23;20040;-93
2022/06/28 08:37:09;;;;;;;0.30;0.30;;;;;;;27.97;36.55;99641.56;6081577;23;20105;-94
2022/06/28 08:39:40;;;;;;;0.30;0.30;;;;;;;28.30;35.17;99654.53;6098077;23;20367;-95
2022/06/28 08:42:16;;;;;;;0.20;0.20;;;;;;;28.43;35.02;99642.25;6075950;23;20429;-94
2022/06/28 08:44:53;;;;;;;0.30;0.30;;;;;;;28.46;34.22;99638.84;6050464;23;20037;-95
2022/06/28 08:47:22;;;;;;;0.30;0.30;;;;;;;28.68;34.30;99658.91;6075075;23;20355;-96
2022/06/28 08:49:59;;;;;;;0.30;0.30;;;;;;;28.59;33.81;99642.41;6096094;23;20026;-95
2022/06/28 08:52:35;;;;;;;0.30;0.30;;;;;;;28.99;33.80;99658.25;6072251;23;20022;-94
2022/06/28 08:55:06;;;;;;;0.30;0.30;;;;;;;29.06;32.29;99646.56;6097457;23;20022;-95
2022/06/28 08:57:41;;;;;;;0.30;0.30;;;;;;;28.84;32.23;99645.94;6098217;23;20029;-95
2022/06/28 09:00:16;;;;;;;0.30;0.30;;;;;;;28.77;31.67;99631.03;6100772;23;20030;-95
2022/06/28 09:02:50;;;;;;;0.30;0.30;;;;;;;28.70;31.55;99640.75;6084113;23;20033;-95
2022/06/28 09:05:19;;;;;;;0.30;0.30;;;;;;;28.82;31.70;99631.56;6091875;23;20029;-93
2022/06/28 09:07:48;;;;;;;0.30;0.30;;;;;;;29.16;30.75;99651.63;6093083;23;20033;-92
2022/06/28 09:10:19;;;;;;;0.30;0.30;;;;;;;29.30;30.85;99645.66;6091213;23;20006;-93
2022/06/28 09:13:13;;;;;;;0.30;0.30;;;;;;;29.85;30.29;99657.06;6112060;23;20109;-93
2022/06/28 09:15:50;;;;;;;0.30;0.30;;;;;;;29.87;29.49;99638.06;6098493;23;20022;-93
2022/06/28 09:18:19;;;;;;;0.30;0.30;;;;;;;30.31;28.93;99649.09;6122450;23;20034;-93
2022/06/28 09:20:54;;;;;;;0.30;0.30;;;;;;;30.62;28.39;99651.81;6097803;23;20030;-94
2022/06/28 09:23:31;;;;;;;0.30;0.30;;;;;;;30.66;27.47;99644.34;6121982;23;20025;-94
2022/06/28 09:26:18;;;;;;;0.30;0.30;;;;;;;30.32;27.98;99653.50;6121173;23;20040;-93
2022/06/28 09:28:51;;;;;;;0.30;0.30;;;;;;;30.63;27.68;99672.91;6119270;23;20026;-95
2022/06/28 09:31:24;;;;;;;0.30;0.30;;;;;;;30.85;27.27;99663.09;6111120;23;20496;-94
2022/06/28 09:34:04;;;;;;;0.30;0.30;;;;;;;31.21;27.25;99663.81;6108714;23;20362;-95
2022/06/28 09:36:35;;;;;;;0.30;0.30;;;;;;;31.43;26.73;99659.50;6082082;23;20032;-94
2022/06/28 09:39:14;;;;;;;0.30;0.30;;;;;;;31.60;26.49;99654.63;6080350;23;20021;-95
2022/06/28 09:41:47;;;;;;;0.30;0.30;;;;;;;31.49;26.17;99654.44;6104165;23;20022;-94
2022/06/28 09:44:34;;;;;;;0.30;0.30;;;;;;;31.47;25.17;99652.03;6103791;23;20022;-94
2022/06/28 09:47:07;;;;;;;0.30;0.30;;;;;;;31.39;25.65;99650.25;6081243;23;20022;-95
2022/06/28 09:49:46;;;;;;;0.30;0.30;;;;;;;31.47;25.59;99648.41;6080783;23;20017;-93
2022/06/28 09:52:17;;;;;;;0.30;0.30;;;;;;;31.42;25.48;99643.94;6125260;23;20433;-95
2022/06/28 09:54:50;;;;;;;0.30;0.30;;;;;;;31.45;25.22;99648.81;6102019;23;20022;-92
2022/06/28 09:57:19;;;;;;;0.30;0.30;;;;;;;31.28;25.45;99650.03;6077214;23;20094;-94
2022/06/28 09:59:55;;;;;;;0.30;0.30;;;;;;;31.67;24.90;99652.78;6101517;23;20101;-94
2022/06/28 10:02:23;;;;;;;0.30;0.30;;;;;;;32.11;24.57;99634.81;6079035;23;20339;-95
2022/06/28 10:05:01;;;;;;;0.30;0.30;;;;;;;32.36;23.75;99654.72;6105648;23;20025;-95
2022/06/28 10:07:34;;;;;;;0.30;0.30;;;;;;;32.58;23.73;99658.69;6079808;23;20125;-96
2022/06/28 10:10:09;;;;;;;0.30;0.30;;;;;;;32.77;23.29;99647.38;6079558;23;20049;-94
2022/06/28 10:15:50;;;;;;;0.30;0.30;;;;;;;32.67;22.95;99650.84;6098935;23;20602;-91
2022/06/28 10:18:21;;;;;;;0.30;0.30;;;;;;;32.66;22.64;99646.41;6098626;23;20109;-90
2022/06/28 10:20:55;;;;;;;0.30;0.30;;;;;;;32.87;22.88;99653.47;6096371;23;20037;-95
2022/06/28 10:28:27;;;;;;;0.30;0.30;;;;;;;33.09;21.88;99647.00;6030452;23;20454;-91
2022/06/28 10:31:46;;;;;;;0.30;0.30;;;;;;;32.95;21.83;99649.63;5982529;23;20161;-91
2022/06/28 10:34:16;;;;;;;0.30;0.30;;;;;;;33.11;21.13;99632.66;6069159;23;20058;-94
2022/06/28 10:36:51;;;;;;;0.30;0.30;;;;;;;33.43;21.21;99647.00;6092982;23;20057;-92
2022/06/28 10:39:32;;;;;;;0.30;0.30;;;;;;;33.62;20.92;99652.41;6041330;23;20773;-91
2022/06/28 10:42:03;;;;;;;0.30;0.30;;;;;;;33.80;20.51;99643.38;6063412;23;20353;-93
2022/06/28 10:44:31;;;;;;;0.30;0.30;;;;;;;33.39;20.58;99646.16;6092433;23;20025;-91
2022/06/28 10:47:00;;;;;;;0.30;0.30;;;;;;;33.42;20.63;99648.19;6092609;23;20029;-93
2022/06/28 10:49:46;;;;;;;0.30;0.30;;;;;;;34.08;20.25;99640.88;6093687;23;20050;-92
2022/06/28 10:52:34;;;;;;;0.30;0.30;;;;;;;34.46;19.52;99658.34;6093843;23;20464;-92
2022/06/28 10:55:04;;;;;;;0.30;0.30;;;;;;;34.13;19.56;99647.28;6095372;23;20068;-90
2022/06/28 10:57:36;;;;;;;0.30;0.30;;;;;;;34.42;20.20;99646.31;6124077;23;20026;-93
2022/06/28 11:00:21;;;;;;;0.30;0.30;;;;;;;34.38;19.47;99658.69;6126177;23;20030;-89
2022/06/28 11:02:52;;;;;;;0.30;0.30;;;;;;;34.32;19.11;99644.25;6124798;23;20029;-92
2022/06/28 11:05:21;;;;;;;0.30;0.30;;;;;;;34.09;19.37;99639.66;6126965;23;20627;-92
2022/06/28 11:07:59;;;;;;;0.30;0.30;;;;;;;34.11;19.06;99644.91;6135515;23;20032;-92
2022/06/28 11:10:28;;;;;;;0.30;0.30;;;;;;;34.53;18.45;99649.97;6100407;23;20021;-93
2022/06/28 11:13:18;;;;;;;0.30;0.30;;;;;;;34.62;18.66;99657.28;6134011;23;20026;-94
2022/06/28 11:15:45;;;;;;;0.30;0.30;;;;;;;34.61;18.36;99638.84;6136752;23;20037;-94
2022/06/28 11:18:30;;;;;;;0.30;0.30;;;;;;;35.31;18.57;99620.72;6136473;23;20081;-94
2022/06/28 11:21:02;;;;;;;0.30;0.30;;;;;;;35.60;17.33;99646.06;6134049;23;20040;-92
2022/06/28 11:23:32;;;;;;;0.30;0.30;;;;;;;35.53;16.76;99617.97;6105237;23;20036;-94
2022/06/28 11:29:03;;;;;;;0.30;0.30;;;;;;;35.37;16.34;99630.38;6083440;23;20437;-96
2022/06/28 11:31:41;;;;;;;0.25;0.25;;;;;;;35.83;16.79;99650.50;6126323;23;20029;-94
2022/06/28 11:34:12;;;;;;;0.30;0.30;;;;;;;35.78;17.03;99637.69;6125040;23;20060;-92
2022/06/28 11:36:44;;;;;;;0.30;0.30;;;;;;;36.26;15.46;99639.28;6077261;23;20331;-95
2022/06/28 11:39:25;;;;;;;0.30;0.30;;;;;;;36.06;15.89;99644.47;6125783;23;20025;-95
2022/06/28 11:41:58;;;;;;;0.30;0.30;;;;;;;35.90;16.47;99642.06;6078769;23;20024;-95
2022/06/28 11:44:27;;;;;;;0.30;0.30;;;;;;;35.96;16.73;99632.06;6114370;23;20080;-93
2022/06/28 11:47:02;;;;;;;0.30;0.30;;;;;;;36.11;16.72;99616.84;6102026;23;20061;-95
2022/06/28 11:49:34;;;;;;;0.30;0.30;;;;;;;36.19;16.88;99626.84;6101266;23;20029;-96
2022/06/28 11:52:02;;;;;;;0.30;0.30;;;;;;;36.25;16.57;99630.03;6126148;23;20022;-94
2022/06/28 11:54:29;;;;;;;0.30;0.30;;;;;;;36.60;16.41;99622.78;6102321;23;20081;-94
2022/06/28 11:56:56;;;;;;;0.20;0.20;;;;;;;36.85;16.37;99617.06;6101226;23;20018;-95
2022/06/28 11:59:58;;;;;;;0.10;0.10;;;;;;;34.39;18.30;99637.91;6102212;23;20085;-94
2022/06/28 12:02:46;;;;;;;0.10;0.10;;;;;;;32.25;20.23;99620.25;6098343;23;20373;-94
2022/06/28 12:05:13;;;;;;;0.13;0.13;;;;;;;33.91;19.66;99633.09;6100992;23;20030;-96
2022/06/28 12:07:44;;;;;;;0.30;0.30;;;;;;;34.06;19.08;99626.41;6101074;23;20033;-93
2022/06/28 12:10:28;;;;;;;0.30;0.30;;;;;;;35.44;17.98;99631.56;6110142;23;20092;-94
2022/06/28 12:13:12;;;;;;;0.30;0.30;;;;;;;36.90;16.89;99636.34;6107072;23;20030;-94
2022/06/28 12:15:49;;;;;;;0.30;0.30;;;;;;;36.89;16.08;99620.66;6103575;23;20029;-96
2022/06/28 12:18:24;;;;;;;0.30;0.30;;;;;;;37.20;15.81;99604.88;6112523;23;20080;-93
2022/06/28 12:20:58;;;;;;;0.30;0.30;;;;;;;37.15;15.84;99624.16;6125020;23;20465;-94
2022/06/28 12:23:26;;;;;;;0.30;0.30;;;;;;;37.20;15.60;99606.88;6123777;23;20025;-93
2022/06/28 12:26:00;;;;;;;0.30;0.30;;;;;;;37.25;15.64;99609.28;6124456;23;20025;-94
2022/06/28 12:28:30;;;;;;;0.30;0.30;;;;;;;37.15;15.24;99612.91;6099700;23;20461;-95
2022/06/28 12:30:58;;;;;;;0.30;0.30;;;;;;;37.52;15.01;99615.94;6099295;23;20122;-93
2022/06/28 12:33:25;;;;;;;0.30;0.30;;;;;;;36.88;15.41;99613.44;6124253;23;20021;-94
2022/06/28 12:35:52;;;;;;;0.30;0.30;;;;;;;36.89;15.46;99603.78;6124069;23;20025;-93